Snow/Ice From: 17-12-2017 10:00 Until: 18-12-2017 06:00 warning for: Snow/Ice Level: Yellow info button

Although rather usual in this region, locally or potentially dangerous phenomena are expected. (such as local winds, summer thunderstorms, rising streams or high waves) Be aware and pay attention to the latest weather updates, especially if you carry out activities exposed to weather or close to a stream or shoreline. 


Meteo18 Weather Cam more information Meteo18 Weather Cam


Thunder radar more information blitzortung!


warning for Snow/Ice more information rain snow radar


Visit our other weather sites:

Template documentation
and downloads

And another site



Weather Underground History page Text

Daily Summary for March 18, 2016 Units:  Metric    English   Both
« Previous Day
Next Day »
Daily Weekly Monthly Yearly Custom
  High: Low: Average:
Temperature: 14.8 °C -0.2 °C 7.3 °C
Dew Point: 5.8 °C -1.3 °C 2.4 °C
Humidity: 95 % 44 % 73 %
Wind Speed: 9.7 km/h 0.0 km/h 1.3 km/h
Wind Gust: 17.7 km/h - -
Wind:- - ENE
Pressure: 1022.2 hPa 1018.2 hPa -
Precipitation: 0.0 mm    
Historical Graphs
 
 
Tabular Data for March 18, 2016
Time Temperature Dew Point Pressure Wind Wind Speed Wind Gust Humidity Rainfall Rate (Hourly)
00:02 3.7 °C 1.4 °C 1022.2 hPa NE 1.6 km/h 1.6 km/h 85 % 0.0 mm
00:12 3.7 °C 1.4 °C 1022.2 hPa Calm   1.6 km/h 85 % 0.0 mm
00:17 3.6 °C 1.3 °C 1022.2 hPa Calm   1.6 km/h 85 % 0.0 mm
00:22 3.5 °C 1.2 °C 1022.2 hPa Calm   1.6 km/h 85 % 0.0 mm
00:27 3.4 °C 1.1 °C 1022.2 hPa Calm   1.6 km/h 85 % 0.0 mm
00:32 3.3 °C 1.0 °C 1022.2 hPa Calm   1.6 km/h 85 % 0.0 mm
00:37 3.2 °C 1.1 °C 1022.2 hPa Calm   1.6 km/h 86 % 0.0 mm
00:42 3.2 °C 1.1 °C 1022.2 hPa Calm   1.6 km/h 86 % 0.0 mm
00:47 3.1 °C 1.0 °C 1022.2 hPa Calm   1.6 km/h 86 % 0.0 mm
00:57 3.3 °C 1.2 °C 1022.2 hPa Calm   1.6 km/h 86 % 0.0 mm
01:02 3.3 °C 1.0 °C 1022.2 hPa Calm   1.6 km/h 85 % 0.0 mm
01:12 3.3 °C 1.0 °C 1022.2 hPa Calm   1.6 km/h 85 % 0.0 mm
01:17 3.3 °C 1.0 °C 1022.2 hPa Calm   1.6 km/h 85 % 0.0 mm
01:22 3.2 °C 0.9 °C 1022.2 hPa Calm   1.6 km/h 85 % 0.0 mm
01:37 2.8 °C 0.7 °C 1022.2 hPa Calm   1.6 km/h 86 % 0.0 mm
01:47 2.7 °C 0.8 °C 1022.2 hPa Calm     87 % 0.0 mm
01:57 2.7 °C 0.8 °C 1022.2 hPa Calm     87 % 0.0 mm
02:02 2.7 °C 0.8 °C 1022.2 hPa Calm   1.6 km/h 87 % 0.0 mm
02:07 2.7 °C 0.8 °C 1021.9 hPa Calm   1.6 km/h 87 % 0.0 mm
02:12 2.6 °C 0.7 °C 1021.9 hPa Calm   1.6 km/h 87 % 0.0 mm
02:17 2.4 °C 0.6 °C 1021.9 hPa Calm   1.6 km/h 88 % 0.0 mm
02:22 2.3 °C 0.5 °C 1021.9 hPa Calm   1.6 km/h 88 % 0.0 mm
02:27 2.2 °C 0.6 °C 1021.9 hPa Calm   1.6 km/h 89 % 0.0 mm
02:32 2.1 °C 0.5 °C 1021.9 hPa Calm     89 % 0.0 mm
02:37 2.1 °C 0.5 °C 1021.9 hPa Calm     89 % 0.0 mm
02:42 2.0 °C 0.4 °C 1021.9 hPa Calm     89 % 0.0 mm
02:47 1.9 °C 0.3 °C 1021.6 hPa Calm     89 % 0.0 mm
02:52 1.8 °C 0.2 °C 1021.6 hPa NE 1.6 km/h 1.6 km/h 89 % 0.0 mm
02:57 2.0 °C 0.4 °C 1021.6 hPa Calm   1.6 km/h 89 % 0.0 mm
03:02 2.1 °C 0.5 °C 1021.6 hPa Calm   1.6 km/h 89 % 0.0 mm
03:07 2.2 °C 0.6 °C 1021.6 hPa Calm   1.6 km/h 89 % 0.0 mm
03:12 2.2 °C 0.6 °C 1021.6 hPa ENE 1.6 km/h 1.6 km/h 89 % 0.0 mm
03:17 2.2 °C 0.4 °C 1021.6 hPa Calm   1.6 km/h 88 % 0.0 mm
03:22 1.9 °C 0.1 °C 1021.6 hPa Calm   1.6 km/h 88 % 0.0 mm
03:27 1.7 °C 0.1 °C 1021.2 hPa Calm   1.6 km/h 89 % 0.0 mm
03:32 1.6 °C 0.0 °C 1021.2 hPa Calm     89 % 0.0 mm
03:37 1.3 °C -0.2 °C 1021.2 hPa Calm   1.6 km/h 90 % 0.0 mm
03:42 1.3 °C -0.2 °C 1021.2 hPa Calm   1.6 km/h 90 % 0.0 mm
03:47 1.2 °C -0.3 °C 1021.2 hPa Calm   3.2 km/h 90 % 0.0 mm
03:57 1.2 °C -0.1 °C 1021.2 hPa Calm   3.2 km/h 91 % 0.0 mm
04:02 1.3 °C 0.1 °C 1020.9 hPa NE 4.8 km/h 4.8 km/h 92 % 0.0 mm
04:07 1.7 °C 0.5 °C 1020.9 hPa NE 1.6 km/h 4.8 km/h 92 % 0.0 mm
04:12 1.9 °C 0.6 °C 1020.9 hPa NE 1.6 km/h 4.8 km/h 91 % 0.0 mm
04:17 1.9 °C 0.4 °C 1020.9 hPa Calm   4.8 km/h 90 % 0.0 mm
04:22 1.8 °C 0.2 °C 1021.2 hPa Calm   4.8 km/h 89 % 0.0 mm
04:27 1.6 °C 0.0 °C 1021.2 hPa Calm   3.2 km/h 89 % 0.0 mm
04:32 1.4 °C -0.2 °C 1021.2 hPa Calm     89 % 0.0 mm
04:37 1.4 °C 0.1 °C 1021.2 hPa Calm     91 % 0.0 mm
04:42 1.2 °C -0.3 °C 1021.2 hPa Calm     90 % 0.0 mm
04:47 1.1 °C -0.2 °C 1020.9 hPa Calm     91 % 0.0 mm
04:52 1.0 °C -0.5 °C 1020.9 hPa Calm     90 % 0.0 mm
04:57 1.0 °C -0.2 °C 1020.9 hPa Calm     92 % 0.0 mm
05:02 1.1 °C -0.2 °C 1020.9 hPa Calm     91 % 0.0 mm
05:12 1.3 °C -0.2 °C 1020.9 hPa Calm   1.6 km/h 90 % 0.0 mm
05:17 1.1 °C -0.4 °C 1020.9 hPa Calm   1.6 km/h 90 % 0.0 mm
05:22 1.1 °C -0.2 °C 1020.9 hPa Calm   1.6 km/h 91 % 0.0 mm
05:27 0.9 °C -0.4 °C 1020.9 hPa NE 1.6 km/h   91 % 0.0 mm
05:32 0.9 °C -0.4 °C 1020.9 hPa Calm     91 % 0.0 mm
05:37 0.9 °C -0.4 °C 1020.9 hPa Calm   1.6 km/h 91 % 0.0 mm
05:42 1.1 °C -0.1 °C 1020.9 hPa Calm   1.6 km/h 92 % 0.0 mm
05:47 1.1 °C -0.2 °C 1020.9 hPa Calm   1.6 km/h 91 % 0.0 mm
05:52 1.0 °C -0.3 °C 1020.9 hPa Calm   1.6 km/h 91 % 0.0 mm
05:57 0.9 °C -0.4 °C 1020.5 hPa Calm   1.6 km/h 91 % 0.0 mm
06:02 0.8 °C -0.4 °C 1020.5 hPa Calm   1.6 km/h 92 % 0.0 mm
06:12 1.1 °C -0.1 °C 1020.9 hPa Calm   1.6 km/h 92 % 0.0 mm
06:17 1.2 °C 0.0 °C 1020.9 hPa Calm   3.2 km/h 92 % 0.0 mm
06:22 1.3 °C 0.0 °C 1020.9 hPa Calm   3.2 km/h 91 % 0.0 mm
06:32 1.1 °C -0.2 °C 1020.9 hPa Calm   1.6 km/h 91 % 0.0 mm
06:47 0.6 °C -0.7 °C 1020.9 hPa Calm     91 % 0.0 mm
06:52 0.3 °C -1.0 °C 1020.9 hPa Calm     91 % 0.0 mm
07:02 0.1 °C -1.2 °C 1020.9 hPa Calm     91 % 0.0 mm
07:12 -0.1 °C -1.2 °C 1020.9 hPa Calm     92 % 0.0 mm
07:17 -0.2 °C -1.3 °C 1020.9 hPa Calm     92 % 0.0 mm
07:22 -0.2 °C -1.2 °C 1020.9 hPa Calm     93 % 0.0 mm
07:27 -0.1 °C -0.9 °C 1020.9 hPa Calm     94 % 0.0 mm
07:32 0.1 °C -0.8 °C 1021.2 hPa Calm     94 % 0.0 mm
07:37 0.2 °C -0.7 °C 1021.2 hPa Calm     94 % 0.0 mm
07:42 0.2 °C -0.8 °C 1021.2 hPa Calm     93 % 0.0 mm
07:47 0.2 °C -0.7 °C 1021.2 hPa Calm     94 % 0.0 mm
07:52 0.4 °C -0.5 °C 1021.2 hPa Calm     94 % 0.0 mm
07:57 0.7 °C -0.2 °C 1021.2 hPa Calm     94 % 0.0 mm
08:02 0.8 °C -0.1 °C 1021.2 hPa Calm     94 % 0.0 mm
08:12 1.3 °C 0.6 °C 1021.2 hPa Calm   3.2 km/h 95 % 0.0 mm
08:17 1.5 °C 0.6 °C 1021.2 hPa Calm   3.2 km/h 94 % 0.0 mm
08:22 1.8 °C 0.9 °C 1021.2 hPa Calm     94 % 0.0 mm
08:27 2.2 °C 1.3 °C 1021.2 hPa Calm     94 % 0.0 mm
08:32 2.5 °C 1.5 °C 1021.2 hPa Calm   1.6 km/h 93 % 0.0 mm
08:37 2.7 °C 1.5 °C 1021.2 hPa Calm   1.6 km/h 92 % 0.0 mm
08:42 3.1 °C 1.9 °C 1021.2 hPa Calm   1.6 km/h 92 % 0.0 mm
08:47 3.7 °C 2.4 °C 1021.2 hPa Calm   1.6 km/h 91 % 0.0 mm
08:57 4.8 °C 2.7 °C 1021.2 hPa NE 3.2 km/h 3.2 km/h 86 % 0.0 mm
09:02 5.2 °C 2.9 °C 1020.9 hPa Calm   1.6 km/h 85 % 0.0 mm
09:07 5.7 °C 3.2 °C 1020.9 hPa Calm   3.2 km/h 84 % 0.0 mm
09:12 6.1 °C 3.4 °C 1021.2 hPa NE 1.6 km/h 3.2 km/h 83 % 0.0 mm
09:17 6.4 °C 3.4 °C 1020.9 hPa Calm   1.6 km/h 81 % 0.0 mm
09:22 6.9 °C 3.9 °C 1020.9 hPa Calm   3.2 km/h 81 % 0.0 mm
09:32 7.4 °C 3.6 °C 1020.9 hPa Calm   3.2 km/h 77 % 0.0 mm
09:42 7.6 °C 4.2 °C 1020.9 hPa Calm   6.4 km/h 79 % 0.0 mm
09:47 7.9 °C 4.1 °C 1020.9 hPa Calm   6.4 km/h 77 % 0.0 mm
09:52 8.2 °C 4.2 °C 1020.9 hPa Calm   6.4 km/h 76 % 0.0 mm
09:57 8.5 °C 4.3 °C 1020.9 hPa Calm   3.2 km/h 75 % 0.0 mm
10:02 8.7 °C 4.9 °C 1020.9 hPa Calm   6.4 km/h 77 % 0.0 mm
10:07 9.1 °C 4.5 °C 1020.9 hPa Calm   6.4 km/h 73 % 0.0 mm
10:12 9.3 °C 4.7 °C 1020.9 hPa ENE 1.6 km/h 6.4 km/h 73 % 0.0 mm
10:17 9.4 °C 4.8 °C 1020.9 hPa ENE 3.2 km/h 4.8 km/h 73 % 0.0 mm
10:22 9.5 °C 4.9 °C 1020.9 hPa Calm   6.4 km/h 73 % 0.0 mm
10:27 9.8 °C 4.8 °C 1020.9 hPa NE 3.2 km/h 6.4 km/h 71 % 0.0 mm
10:32 10.2 °C 4.8 °C 1020.9 hPa Calm   6.4 km/h 69 % 0.0 mm
10:37 10.3 °C 4.7 °C 1020.9 hPa Calm   6.4 km/h 68 % 0.0 mm
10:42 10.6 °C 5.6 °C 1020.9 hPa Calm   6.4 km/h 71 % 0.0 mm
10:47 10.7 °C 5.2 °C 1020.9 hPa Calm   6.4 km/h 69 % 0.0 mm
10:57 10.7 °C 5.2 °C 1020.5 hPa NE 3.2 km/h 9.7 km/h 69 % 0.0 mm
11:02 10.8 °C 4.9 °C 1020.5 hPa East 1.6 km/h 9.7 km/h 67 % 0.0 mm
11:07 10.9 °C 4.8 °C 1020.5 hPa ENE 4.8 km/h 9.7 km/h 66 % 0.0 mm
11:12 10.9 °C 4.8 °C 1020.5 hPa ENE 3.2 km/h 12.9 km/h 66 % 0.0 mm
11:17 11.1 °C 5.2 °C 1020.5 hPa NNE 9.7 km/h 12.9 km/h 67 % 0.0 mm
11:22 11.2 °C 5.1 °C 1020.5 hPa ENE 1.6 km/h 12.9 km/h 66 % 0.0 mm
11:27 11.6 °C 4.6 °C 1020.5 hPa NE 1.6 km/h 9.7 km/h 62 % 0.0 mm
11:32 12.0 °C 4.9 °C 1020.5 hPa NE 1.6 km/h 9.7 km/h 62 % 0.0 mm
11:37 12.3 °C 5.2 °C 1020.5 hPa NNE 1.6 km/h 8.0 km/h 62 % 0.0 mm
11:42 12.1 °C 4.8 °C 1020.5 hPa NNE 6.4 km/h 8.0 km/h 61 % 0.0 mm
11:47 12.1 °C 5.5 °C 1020.5 hPa NE 3.2 km/h 8.0 km/h 64 % 0.0 mm
11:52 12.2 °C 4.2 °C 1020.5 hPa ENE 1.6 km/h 8.0 km/h 58 % 0.0 mm
11:57 12.1 °C 4.8 °C 1020.5 hPa NE 3.2 km/h 11.3 km/h 61 % 0.0 mm
12:02 12.2 °C 5.1 °C 1020.5 hPa ENE 8.0 km/h 11.3 km/h 62 % 0.0 mm
12:07 12.2 °C 5.4 °C 1020.5 hPa NNW 3.2 km/h 11.3 km/h 63 % 0.0 mm
12:12 12.3 °C 5.2 °C 1020.5 hPa East 4.8 km/h 11.3 km/h 62 % 0.0 mm
12:17 12.3 °C 5.5 °C 1020.5 hPa East 3.2 km/h 11.3 km/h 63 % 0.0 mm
12:22 12.4 °C 3.9 °C 1020.5 hPa NE 6.4 km/h 11.3 km/h 56 % 0.0 mm
12:27 12.7 °C 5.8 °C 1020.2 hPa Calm   11.3 km/h 63 % 0.0 mm
12:32 12.9 °C 4.8 °C 1020.2 hPa NE 6.4 km/h 11.3 km/h 58 % 0.0 mm
12:37 12.9 °C 3.0 °C 1020.2 hPa North 3.2 km/h 11.3 km/h 51 % 0.0 mm
12:42 13.1 °C 4.3 °C 1020.2 hPa East 1.6 km/h 11.3 km/h 55 % 0.0 mm
12:47 13.1 °C 3.7 °C 1020.2 hPa NNE 1.6 km/h 12.9 km/h 53 % 0.0 mm
12:52 13.4 °C 3.7 °C 1020.2 hPa Calm   12.9 km/h 52 % 0.0 mm
12:57 13.5 °C 4.1 °C 1020.2 hPa NE 4.8 km/h 12.9 km/h 53 % 0.0 mm
13:02 13.6 °C 3.4 °C 1019.9 hPa NNW 1.6 km/h 11.3 km/h 50 % 0.0 mm
13:07 13.7 °C 4.8 °C 1019.9 hPa Calm   11.3 km/h 55 % 0.0 mm
13:12 13.9 °C 5.0 °C 1019.9 hPa NNE 3.2 km/h 9.7 km/h 55 % 0.0 mm
13:17 13.8 °C 4.7 °C 1019.9 hPa East 1.6 km/h 9.7 km/h 54 % 0.0 mm
13:22 13.7 °C 4.0 °C 1019.9 hPa NE 6.4 km/h 11.3 km/h 52 % 0.0 mm
13:27 13.5 °C 3.8 °C 1019.9 hPa NNE 8.0 km/h 11.3 km/h 52 % 0.0 mm
13:32 13.6 °C 4.5 °C 1019.9 hPa NNE 6.4 km/h 11.3 km/h 54 % 0.0 mm
13:37 13.7 °C 4.8 °C 1019.5 hPa Calm   11.3 km/h 55 % 0.0 mm
13:42 13.6 °C 3.9 °C 1019.5 hPa NNW 4.8 km/h 12.9 km/h 52 % 0.0 mm
13:47 13.7 °C 4.6 °C 1019.5 hPa NNE 4.8 km/h 12.9 km/h 54 % 0.0 mm
13:52 13.9 °C 4.2 °C 1019.5 hPa North 4.8 km/h 12.9 km/h 52 % 0.0 mm
13:57 13.8 °C 4.1 °C 1019.2 hPa North 3.2 km/h 11.3 km/h 52 % 0.0 mm
14:02 13.8 °C 5.4 °C 1019.2 hPa NE 8.0 km/h 9.7 km/h 57 % 0.0 mm
14:07 13.9 °C 5.0 °C 1019.2 hPa NE 3.2 km/h 9.7 km/h 55 % 0.0 mm
14:12 14.3 °C 5.4 °C 1019.2 hPa Calm   9.7 km/h 55 % 0.0 mm
14:17 14.4 °C 4.1 °C 1019.2 hPa ENE 1.6 km/h 9.7 km/h 50 % 0.0 mm
14:22 14.4 °C 4.1 °C 1018.8 hPa NE 1.6 km/h 9.7 km/h 50 % 0.0 mm
14:27 14.4 °C 3.5 °C 1018.8 hPa ENE 1.6 km/h 11.3 km/h 48 % 0.0 mm
14:32 14.2 °C 3.9 °C 1018.8 hPa NNW 3.2 km/h 17.7 km/h 50 % 0.0 mm
14:37 14.3 °C 4.3 °C 1018.8 hPa SE 4.8 km/h 17.7 km/h 51 % 0.0 mm
14:42 14.2 °C 3.3 °C 1018.8 hPa ENE 4.8 km/h 17.7 km/h 48 % 0.0 mm
14:47 14.3 °C 2.8 °C 1018.8 hPa NE 1.6 km/h 11.3 km/h 46 % 0.0 mm
14:52 14.4 °C 3.5 °C 1018.8 hPa NNE 9.7 km/h 11.3 km/h 48 % 0.0 mm
14:57 14.4 °C 3.2 °C 1018.8 hPa Calm   12.9 km/h 47 % 0.0 mm
15:02 14.7 °C 3.8 °C 1018.8 hPa NNE 3.2 km/h 12.9 km/h 48 % 0.0 mm
15:07 14.5 °C 2.7 °C 1018.8 hPa Calm   12.9 km/h 45 % 0.0 mm
15:12 14.5 °C 3.3 °C 1018.8 hPa SSE 3.2 km/h 12.9 km/h 47 % 0.0 mm
15:17 14.6 °C 3.4 °C 1018.5 hPa Calm   12.9 km/h 47 % 0.0 mm
15:22 14.7 °C 2.6 °C 1018.5 hPa Calm   9.7 km/h 44 % 0.0 mm
15:27 14.8 °C 3.0 °C 1018.5 hPa Calm   9.7 km/h 45 % 0.0 mm
15:32 14.8 °C 2.7 °C 1018.5 hPa Calm   6.4 km/h 44 % 0.0 mm
15:37 14.8 °C 3.9 °C 1018.5 hPa Calm   6.4 km/h 48 % 0.0 mm
15:42 14.8 °C 4.2 °C 1018.5 hPa NNE 3.2 km/h 8.0 km/h 49 % 0.0 mm
15:47 14.7 °C 3.5 °C 1018.5 hPa Calm   8.0 km/h 47 % 0.0 mm
15:52 14.8 °C 3.3 °C 1018.5 hPa NNE 6.4 km/h 8.0 km/h 46 % 0.0 mm
15:57 14.7 °C 2.6 °C 1018.2 hPa Calm   8.0 km/h 44 % 0.0 mm
16:02 14.7 °C 2.6 °C 1018.2 hPa NNE 1.6 km/h 8.0 km/h 44 % 0.0 mm
16:07 14.7 °C 2.9 °C 1018.2 hPa Calm   8.0 km/h 45 % 0.0 mm
16:12 14.7 °C 3.5 °C 1018.2 hPa North 3.2 km/h 4.8 km/h 47 % 0.0 mm
16:17 14.7 °C 2.9 °C 1018.2 hPa Calm   4.8 km/h 45 % 0.0 mm
16:22 14.5 °C 3.0 °C 1018.2 hPa NE 3.2 km/h 6.4 km/h 46 % 0.0 mm
16:27 14.3 °C 3.4 °C 1018.2 hPa Calm   6.4 km/h 48 % 0.0 mm
16:32 14.3 °C 3.1 °C 1018.2 hPa NE 6.4 km/h 8.0 km/h 47 % 0.0 mm
16:37 14.3 °C 3.7 °C 1018.2 hPa Calm   8.0 km/h 49 % 0.0 mm
16:42 14.5 °C 3.0 °C 1018.2 hPa Calm   8.0 km/h 46 % 0.0 mm
16:47 14.6 °C 3.7 °C 1018.2 hPa Calm   8.0 km/h 48 % 0.0 mm
16:57 14.6 °C 3.1 °C 1018.2 hPa Calm     46 % 0.0 mm
17:02 14.3 °C 3.7 °C 1018.2 hPa ENE 1.6 km/h 6.4 km/h 49 % 0.0 mm
17:07 14.0 °C 2.9 °C 1018.5 hPa NNE 3.2 km/h 8.0 km/h 47 % 0.0 mm
17:12 13.9 °C 3.6 °C 1018.5 hPa Calm   8.0 km/h 50 % 0.0 mm
17:17 13.8 °C 3.8 °C 1018.5 hPa NNE 1.6 km/h 6.4 km/h 51 % 0.0 mm
17:22 13.6 °C 4.2 °C 1018.5 hPa Calm   4.8 km/h 53 % 0.0 mm
17:27 13.3 °C 3.4 °C 1018.5 hPa Calm   11.3 km/h 51 % 0.0 mm
17:32 13.1 °C 3.2 °C 1018.5 hPa South 1.6 km/h 11.3 km/h 51 % 0.0 mm
17:37 12.9 °C 3.3 °C 1018.5 hPa Calm   11.3 km/h 52 % 0.0 mm
17:42 12.8 °C 4.0 °C 1018.5 hPa Calm   9.7 km/h 55 % 0.0 mm
17:47 12.5 °C 4.0 °C 1018.5 hPa NE 3.2 km/h 9.7 km/h 56 % 0.0 mm
17:52 12.2 °C 3.2 °C 1018.5 hPa Calm   6.4 km/h 54 % 0.0 mm
17:57 12.1 °C 3.6 °C 1018.5 hPa NNE 4.8 km/h 6.4 km/h 56 % 0.0 mm
18:02 12.0 °C 2.7 °C 1018.5 hPa NE 3.2 km/h 9.7 km/h 53 % 0.0 mm
18:07 11.8 °C 3.0 °C 1018.5 hPa NE 3.2 km/h 9.7 km/h 55 % 0.0 mm
18:12 11.4 °C 3.7 °C 1018.5 hPa NE 1.6 km/h 9.7 km/h 59 % 0.0 mm
18:17 10.9 °C 3.7 °C 1018.5 hPa NE 3.2 km/h 9.7 km/h 61 % 0.0 mm
18:22 10.9 °C 2.7 °C 1018.5 hPa Calm   4.8 km/h 57 % 0.0 mm
18:27 10.6 °C 2.9 °C 1018.5 hPa SE 3.2 km/h 4.8 km/h 59 % 0.0 mm
18:32 10.4 °C 3.4 °C 1018.5 hPa ESE 1.6 km/h 4.8 km/h 62 % 0.0 mm
18:37 10.2 °C 3.5 °C 1018.5 hPa East 1.6 km/h 4.8 km/h 63 % 0.0 mm
18:42 9.8 °C 3.5 °C 1018.5 hPa SE 1.6 km/h 4.8 km/h 65 % 0.0 mm
18:47 9.5 °C 3.5 °C 1018.5 hPa East 3.2 km/h 9.7 km/h 66 % 0.0 mm
18:52 9.7 °C 3.4 °C 1018.5 hPa ESE 1.6 km/h 9.7 km/h 65 % 0.0 mm
18:57 9.5 °C 3.0 °C 1018.5 hPa NE 4.8 km/h 9.7 km/h 64 % 0.0 mm
19:02 9.4 °C 3.2 °C 1018.5 hPa East 1.6 km/h 9.7 km/h 65 % 0.0 mm
19:07 9.1 °C 3.5 °C 1018.5 hPa Calm   8.0 km/h 68 % 0.0 mm
19:12 8.9 °C 3.1 °C 1018.5 hPa ENE 1.6 km/h 8.0 km/h 67 % 0.0 mm
19:17 8.7 °C 3.1 °C 1018.5 hPa Calm   8.0 km/h 68 % 0.0 mm
19:22 8.7 °C 3.1 °C 1018.5 hPa Calm   8.0 km/h 68 % 0.0 mm
19:27 8.3 °C 2.9 °C 1018.8 hPa ENE 1.6 km/h 6.4 km/h 69 % 0.0 mm
19:32 8.0 °C 2.9 °C 1018.8 hPa NE 1.6 km/h 6.4 km/h 70 % 0.0 mm
19:37 7.8 °C 2.9 °C 1018.8 hPa NE 3.2 km/h 3.2 km/h 71 % 0.0 mm
19:42 7.8 °C 2.9 °C 1018.8 hPa ENE 1.6 km/h 3.2 km/h 71 % 0.0 mm
19:47 7.7 °C 2.8 °C 1018.8 hPa Calm   4.8 km/h 71 % 0.0 mm
19:52 7.6 °C 2.7 °C 1018.8 hPa NE 3.2 km/h 4.8 km/h 71 % 0.0 mm
19:57 7.4 °C 2.7 °C 1018.8 hPa Calm   4.8 km/h 72 % 0.0 mm
20:02 7.3 °C 2.6 °C 1018.8 hPa East 3.2 km/h 4.8 km/h 72 % 0.0 mm
20:07 7.2 °C 2.7 °C 1018.8 hPa Calm   4.8 km/h 73 % 0.0 mm
20:12 6.9 °C 2.6 °C 1018.8 hPa Calm   4.8 km/h 74 % 0.0 mm
20:17 6.7 °C 2.6 °C 1018.8 hPa Calm   3.2 km/h 75 % 0.0 mm
20:22 6.7 °C 2.6 °C 1018.8 hPa Calm   3.2 km/h 75 % 0.0 mm
20:27 6.7 °C 2.6 °C 1018.8 hPa ENE 1.6 km/h 3.2 km/h 75 % 0.0 mm
20:32 6.7 °C 2.6 °C 1018.8 hPa Calm   6.4 km/h 75 % 0.0 mm
20:37 6.6 °C 2.7 °C 1018.8 hPa Calm   6.4 km/h 76 % 0.0 mm
20:42 6.3 °C 2.6 °C 1018.8 hPa Calm   6.4 km/h 77 % 0.0 mm
20:47 6.1 °C 2.6 °C 1019.2 hPa ENE 1.6 km/h 6.4 km/h 78 % 0.0 mm
20:52 5.9 °C 2.4 °C 1019.2 hPa Calm   6.4 km/h 78 % 0.0 mm
20:57 5.7 °C 2.3 °C 1019.2 hPa Calm   3.2 km/h 79 % 0.0 mm
21:02 5.4 °C 2.2 °C 1019.2 hPa NE 3.2 km/h 3.2 km/h 80 % 0.0 mm
21:07 5.3 °C 2.1 °C 1019.2 hPa Calm   3.2 km/h 80 % 0.0 mm
21:12 5.2 °C 2.2 °C 1019.2 hPa NE 3.2 km/h 4.8 km/h 81 % 0.0 mm
21:17 5.3 °C 2.3 °C 1019.2 hPa Calm   6.4 km/h 81 % 0.0 mm
21:22 5.3 °C 2.3 °C 1019.2 hPa Calm   6.4 km/h 81 % 0.0 mm
21:27 5.3 °C 2.1 °C 1019.2 hPa ENE 1.6 km/h 6.4 km/h 80 % 0.0 mm
21:32 5.1 °C 2.1 °C 1019.2 hPa ENE 1.6 km/h 6.4 km/h 81 % 0.0 mm
21:37 4.9 °C 2.1 °C 1019.2 hPa ENE 1.6 km/h 1.6 km/h 82 % 0.0 mm
21:42 4.9 °C 1.9 °C 1019.2 hPa Calm   1.6 km/h 81 % 0.0 mm
21:47 5.0 °C 2.0 °C 1019.2 hPa Calm   1.6 km/h 81 % 0.0 mm
21:52 4.9 °C 1.9 °C 1019.2 hPa Calm   1.6 km/h 81 % 0.0 mm
21:57 4.9 °C 1.9 °C 1019.2 hPa Calm   1.6 km/h 81 % 0.0 mm
22:02 4.9 °C 1.9 °C 1019.2 hPa ENE 1.6 km/h 3.2 km/h 81 % 0.0 mm
22:07 4.9 °C 1.9 °C 1019.2 hPa NE 1.6 km/h 3.2 km/h 81 % 0.0 mm
22:12 4.8 °C 1.8 °C 1019.2 hPa NE 1.6 km/h 3.2 km/h 81 % 0.0 mm
22:17 4.7 °C 1.9 °C 1019.2 hPa Calm   3.2 km/h 82 % 0.0 mm
22:22 4.8 °C 2.0 °C 1019.2 hPa NE 1.6 km/h 3.2 km/h 82 % 0.0 mm
22:27 4.9 °C 1.9 °C 1019.2 hPa NE 1.6 km/h 3.2 km/h 81 % 0.0 mm
22:32 5.0 °C 2.0 °C 1019.2 hPa Calm   4.8 km/h 81 % 0.0 mm
22:37 5.1 °C 1.9 °C 1019.2 hPa East 1.6 km/h 4.8 km/h 80 % 0.0 mm
22:42 5.0 °C 2.0 °C 1019.2 hPa East 1.6 km/h 6.4 km/h 81 % 0.0 mm
22:47 4.8 °C 1.8 °C 1019.2 hPa Calm   6.4 km/h 81 % 0.0 mm
22:52 4.9 °C 1.9 °C 1019.2 hPa NE 1.6 km/h 6.4 km/h 81 % 0.0 mm
22:57 5.1 °C 1.9 °C 1019.2 hPa NE 3.2 km/h 3.2 km/h 80 % 0.0 mm
23:02 5.3 °C 2.1 °C 1019.2 hPa NE 4.8 km/h 4.8 km/h 80 % 0.0 mm
23:07 5.3 °C 2.1 °C 1019.5 hPa NE 3.2 km/h 4.8 km/h 80 % 0.0 mm
23:12 5.2 °C 2.0 °C 1019.2 hPa ESE 1.6 km/h 4.8 km/h 80 % 0.0 mm
23:17 5.1 °C 2.3 °C 1019.2 hPa ESE 1.6 km/h 6.4 km/h 82 % 0.0 mm
23:22 5.1 °C 2.5 °C 1019.2 hPa South 1.6 km/h 6.4 km/h 83 % 0.0 mm
23:27 4.9 °C 2.3 °C 1019.2 hPa ENE 3.2 km/h 6.4 km/h 83 % 0.0 mm
23:32 4.9 °C 2.4 °C 1019.2 hPa Calm   9.7 km/h 84 % 0.0 mm
23:37 4.8 °C 2.3 °C 1019.2 hPa NE 3.2 km/h 9.7 km/h 84 % 0.0 mm
23:42 4.7 °C 2.4 °C 1019.2 hPa NE 4.8 km/h 9.7 km/h 85 % 0.0 mm
23:47 4.8 °C 2.5 °C 1019.2 hPa ESE 1.6 km/h 9.7 km/h 85 % 0.0 mm
23:52 4.7 °C 2.4 °C 1019.2 hPa NE 8.0 km/h 9.7 km/h 85 % 0.0 mm
23:57 4.7 °C 2.4 °C 1019.5 hPa Calm   9.7 km/h 85 % 0.0 mm
Meteo18
Compliments of Weather Underground - 4 mb

Script developed by  Jim McMurry - jmcmurry@mwt.net Adapted for the template by  Wim van der Kuil - Leuven-Template.eu

You find our weather info also at:

European Weather Network

Weather Underground

Equipment we use:

Weather-station
Davis Vue

Weather-program
Meteohub

Weather-server
Raspberry PI 2 B+

Provider
1 and 1

Davis Vue

Meteohub

Raspberry PI 2 B+

1 and 1